createdAt,value
2019-03-01T00:00:33.744Z,4.84
2019-03-01T00:03:06.721Z,4.76
2019-03-01T00:05:53.433Z,4.73
2019-03-01T00:08:27.860Z,4.68
2019-03-01T00:11:08.442Z,4.74
2019-03-01T00:13:58.201Z,4.72
2019-03-01T00:16:51.364Z,4.69
2019-03-01T00:19:26.188Z,4.65
2019-03-01T00:22:17.513Z,4.66
2019-03-01T00:24:51.928Z,4.53
2019-03-01T00:27:44.477Z,4.46
2019-03-01T00:30:35.994Z,4.47
2019-03-01T00:33:20.870Z,4.47
2019-03-01T00:36:04.503Z,4.50
2019-03-01T00:38:51.322Z,4.56
2019-03-01T00:41:42.428Z,4.50
2019-03-01T00:44:20.128Z,4.44
2019-03-01T00:46:51.578Z,4.46
2019-03-01T00:49:23.426Z,4.50
2019-03-01T00:51:54.984Z,4.54
2019-03-01T00:54:26.645Z,4.50
2019-03-01T00:56:58.302Z,4.50
2019-03-01T00:59:29.846Z,4.42
2019-03-01T01:02:01.404Z,4.50
2019-03-01T01:04:33.165Z,4.55
2019-03-01T01:07:04.824Z,4.53
2019-03-01T01:09:36.678Z,4.50
2019-03-01T01:12:08.336Z,4.49
2019-03-01T01:14:39.998Z,4.53
2019-03-01T01:17:11.541Z,4.51
2019-03-01T01:19:43.197Z,4.44
2019-03-01T01:22:14.751Z,4.49
2019-03-01T01:24:46.509Z,4.46
2019-03-01T01:27:18.164Z,4.54
2019-03-01T01:29:49.825Z,4.50
2019-03-01T01:32:21.480Z,4.52
2019-03-01T01:34:54.053Z,4.54
2019-03-01T01:37:25.724Z,4.53
2019-03-01T01:39:57.376Z,4.40
2019-03-01T01:42:29.035Z,4.48
2019-03-01T01:45:00.697Z,4.47
2019-03-01T01:47:32.554Z,4.46
2019-03-01T01:50:06.148Z,4.42
2019-03-01T01:52:38.832Z,4.45
2019-03-01T01:55:10.376Z,4.42
2019-03-01T01:57:42.036Z,4.38
2019-03-01T02:00:14.209Z,4.44
2019-03-01T02:02:46.061Z,4.37
2019-03-01T02:05:18.333Z,4.41
2019-03-01T02:07:50.598Z,4.33
2019-03-01T02:10:22.562Z,4.32
2019-03-01T02:12:54.224Z,4.34
2019-03-01T02:15:25.474Z,4.38
2019-03-01T02:17:57.115Z,4.19
2019-03-01T02:20:28.776Z,4.10
2019-03-01T02:23:00.537Z,4.05
2019-03-01T02:25:32.837Z,4.09
2019-03-01T02:28:04.359Z,4.03
2019-03-01T02:30:42.067Z,4.05
2019-03-01T02:33:13.730Z,4.06
2019-03-01T02:35:45.276Z,4.00
2019-03-01T02:38:16.928Z,3.93
2019-03-01T02:40:48.482Z,3.89
2019-03-01T02:43:20.342Z,3.84
2019-03-01T02:45:51.599Z,3.80
2019-03-01T02:48:23.657Z,3.64
2019-03-01T02:50:55.099Z,3.69
2019-03-01T02:53:26.883Z,3.79
2019-03-01T02:55:58.411Z,3.70
2019-03-01T02:58:30.271Z,3.72
2019-03-01T03:01:01.889Z,3.58
2019-03-01T03:03:33.380Z,3.59
2019-03-01T03:06:09.542Z,3.69
2019-03-01T03:08:40.784Z,3.55
2019-03-01T03:11:12.437Z,3.63
2019-03-01T03:13:44.105Z,3.56
2019-03-01T03:16:15.866Z,3.67
2019-03-01T03:18:47.414Z,3.83
2019-03-01T03:21:19.070Z,3.87
2019-03-01T03:23:50.621Z,3.80
2019-03-01T03:26:22.286Z,3.88
2019-03-01T03:28:53.831Z,3.92
2019-03-01T03:31:25.494Z,3.88
2019-03-01T03:33:57.164Z,3.82
2019-03-01T03:36:28.905Z,3.90
2019-03-01T03:39:00.560Z,3.94
2019-03-01T03:41:33.238Z,3.92
2019-03-01T03:44:04.888Z,3.88
2019-03-01T03:46:36.548Z,3.86
2019-03-01T03:49:08.009Z,3.93
2019-03-01T03:51:39.658Z,3.79
2019-03-01T03:54:11.320Z,3.84
2019-03-01T03:56:42.964Z,3.77
2019-03-01T03:59:14.624Z,3.76
2019-03-01T04:01:46.311Z,3.59
2019-03-01T04:04:17.940Z,3.69
2019-03-01T04:06:50.021Z,3.55
2019-03-01T04:09:21.352Z,3.60
2019-03-01T04:11:53.006Z,3.30
2019-03-01T04:14:24.677Z,3.46
2019-03-01T04:16:56.325Z,3.44
2019-03-01T04:19:27.992Z,3.56
2019-03-01T04:21:59.424Z,3.54
2019-03-01T04:24:31.096Z,3.46
2019-03-01T04:27:02.740Z,3.45
2019-03-01T04:29:34.600Z,3.45
2019-03-01T04:32:06.561Z,3.50
2019-03-01T04:34:37.914Z,3.56
2019-03-01T04:37:09.771Z,3.59
2019-03-01T04:39:41.840Z,3.50
2019-03-01T04:42:13.729Z,3.53
2019-03-01T04:44:45.359Z,3.47
2019-03-01T04:47:17.005Z,3.54
2019-03-01T04:49:48.869Z,3.56
2019-03-01T04:52:34.100Z,3.72
2019-03-01T04:55:08.973Z,3.74
2019-03-01T04:57:40.632Z,3.70
2019-03-01T05:00:15.256Z,3.68
2019-03-01T05:02:47.012Z,3.77
2019-03-01T05:05:18.673Z,3.79
2019-03-01T05:07:50.427Z,3.87
2019-03-01T05:10:21.775Z,3.99
2019-03-01T05:12:53.326Z,3.85
2019-03-01T05:15:25.284Z,3.77
2019-03-01T05:17:56.845Z,3.96
2019-03-01T05:20:30.470Z,3.86
2019-03-01T05:23:01.487Z,3.91
2019-03-01T05:25:33.249Z,3.88
2019-03-01T05:28:04.910Z,3.95
2019-03-01T05:30:36.362Z,4.01
2019-03-01T05:33:07.908Z,4.05
2019-03-01T05:35:39.908Z,4.04
2019-03-01T05:38:11.523Z,4.00
2019-03-01T05:40:43.181Z,3.89
2019-03-01T05:43:15.040Z,3.89
2019-03-01T05:45:46.708Z,3.93
2019-03-01T05:48:18.463Z,3.93
2019-03-01T05:50:50.342Z,4.04
2019-03-01T05:53:21.979Z,4.05
2019-03-01T05:55:53.729Z,3.95
2019-03-01T05:58:36.728Z,4.14
2019-03-01T06:01:16.322Z,4.04
2019-03-01T06:04:17.844Z,4.04
2019-03-01T06:07:19.516Z,4.04
2019-03-01T06:10:13.717Z,4.07
2019-03-01T06:13:03.487Z,4.13
2019-03-01T06:15:53.255Z,4.37
2019-03-01T06:18:56.347Z,4.34
2019-03-01T06:21:48.193Z,4.49
2019-03-01T06:24:45.344Z,4.48
2019-03-01T06:27:36.783Z,4.47
2019-03-01T06:30:26.953Z,4.43
2019-03-01T06:33:10.693Z,4.45
2019-03-01T06:36:12.859Z,4.43
2019-03-01T06:38:55.466Z,4.22
2019-03-01T06:41:39.380Z,4.25
2019-03-01T06:44:17.108Z,4.17
2019-03-01T06:47:01.791Z,4.13
2019-03-01T06:49:52.676Z,4.31
2019-03-01T06:52:24.739Z,4.40
2019-03-01T06:54:56.195Z,4.36
2019-03-01T06:57:27.978Z,4.50
2019-03-01T06:59:59.609Z,4.41
2019-03-01T07:02:38.635Z,4.57
2019-03-01T07:05:10.597Z,4.64
2019-03-01T07:07:42.685Z,4.66
2019-03-01T07:10:14.252Z,4.63
2019-03-01T07:12:45.874Z,4.64
2019-03-01T07:15:17.422Z,4.71
2019-03-01T07:17:49.085Z,4.68
2019-03-01T07:20:22.112Z,4.91
2019-03-01T07:22:53.938Z,5.03
2019-03-01T07:25:25.480Z,5.39
2019-03-01T07:27:57.136Z,5.30
2019-03-01T07:30:28.485Z,6.05
2019-03-01T07:33:00.166Z,6.52
2019-03-01T07:35:31.799Z,6.26
2019-03-01T07:38:03.369Z,6.05
2019-03-01T07:40:35.213Z,5.95
2019-03-01T07:43:07.709Z,6.28
2019-03-01T07:45:39.358Z,6.22
2019-03-01T07:48:11.318Z,6.00
2019-03-01T07:50:42.870Z,5.82
2019-03-01T07:53:14.829Z,5.84
2019-03-01T07:55:46.696Z,5.72
2019-03-01T07:58:18.131Z,5.48
2019-03-01T08:00:53.646Z,5.25
2019-03-01T08:03:23.826Z,5.24
2019-03-01T08:05:55.771Z,4.89
2019-03-01T08:08:27.571Z,5.12
2019-03-01T08:11:00.214Z,5.18
2019-03-01T08:13:31.755Z,5.16
2019-03-01T08:16:03.562Z,5.38
2019-03-01T08:18:35.546Z,5.23
2019-03-01T08:21:10.125Z,5.25
2019-03-01T08:23:42.496Z,5.43
2019-03-01T08:26:15.782Z,5.92
2019-03-01T08:28:48.692Z,5.70
2019-03-01T08:31:20.993Z,5.74
2019-03-01T08:33:53.411Z,5.52
2019-03-01T08:36:25.380Z,5.59
2019-03-01T08:39:00.978Z,5.63
2019-03-01T08:41:37.993Z,6.06
2019-03-01T08:44:09.649Z,6.24
2019-03-01T08:46:45.640Z,6.35
2019-03-01T08:49:16.157Z,6.03
2019-03-01T08:51:47.964Z,6.05
2019-03-01T08:54:23.051Z,5.93
2019-03-01T08:56:53.673Z,5.98
2019-03-01T08:59:25.868Z,6.26
2019-03-01T09:01:58.674Z,6.06
2019-03-01T09:04:37.899Z,5.96
2019-03-01T09:07:08.608Z,6.36
2019-03-01T09:09:40.483Z,6.99
2019-03-01T09:12:14.887Z,6.61
2019-03-01T09:14:46.424Z,6.65
2019-03-01T09:17:19.862Z,6.51
2019-03-01T09:19:50.915Z,6.65
2019-03-01T09:22:24.175Z,7.34
2019-03-01T09:24:56.223Z,7.51
2019-03-01T09:27:30.316Z,7.57
2019-03-01T09:30:03.931Z,7.00
2019-03-01T09:32:37.060Z,6.89
2019-03-01T09:35:29.916Z,6.65
2019-03-01T09:38:04.614Z,6.33
2019-03-01T09:40:36.925Z,5.97
2019-03-01T09:43:13.148Z,6.03
2019-03-01T09:45:49.563Z,6.03
2019-03-01T09:48:22.114Z,6.26
2019-03-01T09:50:53.847Z,6.59
2019-03-01T09:53:30.507Z,6.36
2019-03-01T09:56:02.395Z,5.89
2019-03-01T09:58:34.015Z,5.88
2019-03-01T10:01:08.559Z,5.91
2019-03-01T10:03:40.648Z,6.08
2019-03-01T10:06:12.923Z,6.69
2019-03-01T10:08:44.898Z,6.82
2019-03-01T10:11:17.807Z,6.46
2019-03-01T10:13:49.505Z,5.99
2019-03-01T10:16:21.357Z,5.78
2019-03-01T10:18:55.200Z,5.69
2019-03-01T10:21:33.999Z,5.83
2019-03-01T10:24:05.658Z,5.89
2019-03-01T10:26:37.512Z,6.06
2019-03-01T10:29:09.272Z,6.06
2019-03-01T10:31:43.936Z,5.87
2019-03-01T10:34:15.922Z,5.88
2019-03-01T10:36:48.136Z,5.65
2019-03-01T10:39:21.564Z,5.49
2019-03-01T10:41:53.708Z,5.37
2019-03-01T10:44:27.099Z,5.03
2019-03-01T10:46:59.635Z,4.80
2019-03-01T10:49:31.682Z,4.89
2019-03-01T10:52:03.552Z,4.89
2019-03-01T10:54:38.548Z,4.78
2019-03-01T10:57:12.068Z,4.73
2019-03-01T10:59:43.672Z,4.84
2019-03-01T11:02:15.593Z,5.16
2019-03-01T11:04:48.629Z,5.06
2019-03-01T11:07:20.386Z,5.04
2019-03-01T11:09:52.090Z,5.03
2019-03-01T11:12:24.837Z,4.93
2019-03-01T11:15:01.751Z,4.79
2019-03-01T11:17:33.460Z,5.06
2019-03-01T11:20:10.851Z,6.62
2019-03-01T11:22:42.527Z,7.22
2019-03-01T11:25:17.032Z,7.01
2019-03-01T11:27:48.491Z,6.56
2019-03-01T11:30:39.774Z,6.23
2019-03-01T11:33:11.435Z,5.71
2019-03-01T11:35:43.157Z,5.38
2019-03-01T11:38:15.088Z,4.88
2019-03-01T11:40:46.730Z,4.72
2019-03-01T11:43:18.705Z,4.69
2019-03-01T11:45:50.354Z,4.89
2019-03-01T11:48:23.262Z,4.97
2019-03-01T11:50:55.213Z,5.23
2019-03-01T11:53:27.171Z,5.41
2019-03-01T11:55:59.266Z,5.43
2019-03-01T11:58:35.194Z,5.21
2019-03-01T12:01:16.904Z,5.13
2019-03-01T12:03:46.177Z,5.07
2019-03-01T12:06:18.447Z,4.90
2019-03-01T12:08:49.898Z,5.03
2019-03-01T12:11:21.594Z,4.89
2019-03-01T12:13:53.410Z,4.86
2019-03-01T12:16:25.274Z,4.88
2019-03-01T12:18:57.133Z,4.81
2019-03-01T12:21:29.158Z,4.77
2019-03-01T12:24:00.562Z,4.98
2019-03-01T12:26:32.453Z,5.04
2019-03-01T12:29:04.188Z,5.06
2019-03-01T12:31:40.297Z,5.20
2019-03-01T12:34:23.944Z,5.03
2019-03-01T12:36:57.462Z,5.06
2019-03-01T12:39:32.955Z,5.18
2019-03-01T12:42:05.276Z,5.23
2019-03-01T12:44:40.485Z,5.31
2019-03-01T12:47:12.113Z,5.31
2019-03-01T12:49:47.328Z,5.11
2019-03-01T12:52:19.664Z,5.04
2019-03-01T12:54:51.196Z,4.96
2019-03-01T12:57:28.328Z,5.02
2019-03-01T13:00:00.019Z,4.90
2019-03-01T13:05:13.654Z,4.84
2019-03-01T13:07:45.084Z,4.79
2019-03-01T13:10:21.125Z,4.64
2019-03-01T13:12:55.330Z,4.73
2019-03-01T13:15:28.001Z,4.68
2019-03-01T13:17:59.536Z,4.70
2019-03-01T13:20:33.727Z,4.61
2019-03-01T13:23:07.799Z,4.57
2019-03-01T13:25:39.908Z,4.37
2019-03-01T13:28:13.394Z,4.54
2019-03-01T13:33:23.407Z,4.40
2019-03-01T13:36:04.616Z,4.44
2019-03-01T13:38:37.719Z,4.33
2019-03-01T13:49:12.194Z,4.59
2019-03-01T13:51:49.362Z,4.61
2019-03-01T13:54:27.038Z,4.56
2019-03-01T13:56:59.792Z,4.64
2019-03-01T13:59:40.439Z,4.64
2019-03-01T14:04:52.252Z,4.65
2019-03-01T14:07:28.555Z,4.60
2019-03-01T14:10:04.813Z,4.74
2019-03-01T14:12:37.980Z,4.70
2019-03-01T14:15:14.180Z,4.77
2019-03-01T14:17:51.833Z,4.47
2019-03-01T14:20:23.802Z,4.33
2019-03-01T14:22:56.431Z,4.46
2019-03-01T14:25:31.010Z,4.34
2019-03-01T14:28:05.197Z,4.46
2019-03-01T14:30:37.149Z,4.49
2019-03-01T14:33:12.693Z,4.39
2019-03-01T14:35:48.371Z,4.36
2019-03-01T14:38:26.797Z,4.19
2019-03-01T14:40:59.634Z,4.18
2019-03-01T14:43:36.464Z,4.18
2019-03-01T14:46:12.062Z,4.21
2019-03-01T14:48:46.183Z,4.30
2019-03-01T14:51:19.979Z,4.24
2019-03-01T14:53:52.684Z,4.08
2019-03-01T14:56:38.139Z,3.99
2019-03-01T14:59:34.789Z,3.92
2019-03-01T15:07:41.568Z,3.90
2019-03-01T15:10:15.803Z,3.96
2019-03-01T15:20:47.341Z,4.06
2019-03-01T15:23:23.944Z,4.10
2019-03-01T15:25:59.104Z,4.09
2019-03-01T15:31:12.691Z,3.97
2019-03-01T15:36:37.121Z,3.85
2019-03-01T15:41:45.064Z,3.90
2019-03-01T15:44:16.717Z,3.98
2019-03-01T15:46:51.076Z,3.82
2019-03-01T15:49:23.532Z,4.04
2019-03-01T15:54:36.818Z,3.81
2019-03-01T15:57:11.558Z,3.78
2019-03-01T15:59:47.770Z,3.72
2019-03-01T16:02:18.061Z,3.70
2019-03-01T16:04:50.133Z,3.61
2019-03-01T16:07:22.871Z,3.71
2019-03-01T16:09:55.146Z,3.72
2019-03-01T16:12:29.002Z,3.70
2019-03-01T16:15:02.681Z,3.55
2019-03-01T16:17:36.516Z,3.55
2019-03-01T16:22:55.587Z,3.50
2019-03-01T16:25:32.240Z,3.41
2019-03-01T16:28:03.996Z,3.41
2019-03-01T16:30:39.337Z,3.40
2019-03-01T16:33:12.367Z,3.32
2019-03-01T16:35:48.491Z,3.37
2019-03-01T16:38:23.633Z,3.46
2019-03-01T16:41:01.883Z,3.50
2019-03-01T16:43:36.751Z,3.32
2019-03-01T16:46:10.269Z,3.19
2019-03-01T16:48:42.247Z,3.31
2019-03-01T16:51:18.707Z,3.21
2019-03-01T16:53:48.999Z,3.26
2019-03-01T16:59:00.301Z,3.30
2019-03-01T17:01:32.408Z,3.20
2019-03-01T17:04:03.831Z,3.34
2019-03-01T17:06:35.811Z,3.21
2019-03-01T17:09:07.461Z,3.42
2019-03-01T17:11:41.546Z,3.41
2019-03-01T17:14:15.862Z,3.46
2019-03-01T17:16:47.377Z,3.45
2019-03-01T17:19:20.595Z,3.52
2019-03-01T17:21:53.019Z,3.46
2019-03-01T17:24:24.843Z,3.57
2019-03-01T17:26:56.410Z,3.57
2019-03-01T17:29:29.058Z,3.56
2019-03-01T17:32:01.982Z,3.64
2019-03-01T17:34:35.202Z,3.55
2019-03-01T17:37:06.761Z,3.45
2019-03-01T17:39:42.076Z,3.62
2019-03-01T17:42:17.449Z,3.58
2019-03-01T17:44:52.854Z,3.57
2019-03-01T17:47:24.507Z,3.49
2019-03-01T17:49:55.578Z,3.34
2019-03-01T17:52:26.815Z,3.63
2019-03-01T17:55:01.529Z,3.51
2019-03-01T17:57:33.016Z,3.38
2019-03-01T18:00:05.591Z,3.33
2019-03-01T18:02:40.534Z,3.30
2019-03-01T18:05:12.825Z,3.22
2019-03-01T18:07:44.238Z,3.24
2019-03-01T18:10:15.966Z,3.28
2019-03-01T18:12:47.438Z,3.30
2019-03-01T18:17:56.458Z,3.38
2019-03-01T18:20:33.922Z,3.45
2019-03-01T18:23:05.699Z,3.39
2019-03-01T18:25:38.272Z,3.41
2019-03-01T18:28:09.864Z,3.43
2019-03-01T18:30:43.255Z,3.38
2019-03-01T18:33:16.915Z,3.41
2019-03-01T18:35:48.816Z,3.37
2019-03-01T18:38:21.930Z,3.38
2019-03-01T18:40:53.587Z,3.39
2019-03-01T18:46:08.671Z,3.18
2019-03-01T18:48:43.929Z,3.26
2019-03-01T18:51:15.143Z,3.37
2019-03-01T18:53:48.028Z,3.30
2019-03-01T18:56:21.327Z,3.37
2019-03-01T18:58:53.513Z,3.36
2019-03-01T19:01:26.224Z,3.36
2019-03-01T19:03:58.968Z,3.19
2019-03-01T19:06:30.608Z,3.19
2019-03-01T19:09:02.266Z,3.24
2019-03-01T19:11:37.974Z,3.28
2019-03-01T19:14:09.363Z,3.32
2019-03-01T19:16:40.879Z,3.18
2019-03-01T19:19:13.873Z,3.18
2019-03-01T19:21:45.819Z,3.13
2019-03-01T19:24:17.201Z,3.15
2019-03-01T19:26:49.280Z,3.17
2019-03-01T19:29:20.622Z,3.27
2019-03-01T19:31:52.938Z,3.20
2019-03-01T19:34:25.562Z,3.23
2019-03-01T19:36:56.953Z,3.08
2019-03-01T19:39:29.156Z,3.10
2019-03-01T19:42:01.081Z,3.13
2019-03-01T19:44:32.620Z,3.16
2019-03-01T19:47:04.992Z,3.33
2019-03-01T19:49:36.643Z,3.29
2019-03-01T19:52:12.177Z,3.32
2019-03-01T19:54:43.982Z,3.18
2019-03-01T19:57:15.617Z,3.29
2019-03-01T19:59:49.615Z,3.28
2019-03-01T20:02:23.093Z,3.28
2019-03-01T20:04:55.660Z,3.27
2019-03-01T20:07:28.856Z,3.42
2019-03-01T20:10:00.301Z,3.32
2019-03-01T20:12:31.861Z,3.22
2019-03-01T20:15:06.683Z,3.39
2019-03-01T20:17:44.418Z,3.10
2019-03-01T20:20:16.458Z,3.10
2019-03-01T20:22:54.291Z,3.13
2019-03-01T20:25:26.551Z,3.20
2019-03-01T20:27:57.917Z,3.12
2019-03-01T20:30:37.357Z,3.04
2019-03-01T20:33:08.901Z,3.09
2019-03-01T20:35:42.717Z,3.00
2019-03-01T20:38:14.047Z,3.04
2019-03-01T20:40:45.704Z,3.02
2019-03-01T20:43:17.465Z,3.09
2019-03-01T20:45:48.928Z,3.09
2019-03-01T20:48:21.443Z,3.18
2019-03-01T20:50:52.774Z,3.18
2019-03-01T20:53:24.255Z,3.07
2019-03-01T20:55:56.864Z,3.10
2019-03-01T20:58:28.285Z,2.98
2019-03-01T21:01:01.919Z,3.24
2019-03-01T21:03:33.013Z,3.08
2019-03-01T21:06:05.449Z,3.13
2019-03-01T21:08:38.624Z,3.13
2019-03-01T21:11:10.262Z,3.09
2019-03-01T21:13:42.250Z,3.11
2019-03-01T21:16:15.240Z,2.92
2019-03-01T21:18:47.004Z,2.91
2019-03-01T21:21:20.699Z,2.90
2019-03-01T21:23:53.545Z,3.00
2019-03-01T21:26:25.360Z,3.06
2019-03-01T21:28:56.599Z,3.01
2019-03-01T21:31:27.842Z,2.93
2019-03-01T21:33:59.395Z,2.97
2019-03-01T21:36:39.440Z,2.99
2019-03-01T21:39:13.146Z,2.89
2019-03-01T21:41:46.024Z,2.97
2019-03-01T21:44:17.480Z,2.85
2019-03-01T21:46:50.670Z,2.86
2019-03-01T21:49:24.833Z,2.87
2019-03-01T21:51:56.329Z,2.76
2019-03-01T21:54:27.700Z,2.65
2019-03-01T21:57:00.317Z,2.77
2019-03-01T21:59:32.918Z,2.71
2019-03-01T22:02:05.316Z,2.79
2019-03-01T22:04:37.375Z,2.64
2019-03-01T22:07:12.312Z,2.56
2019-03-01T22:09:43.564Z,2.51
2019-03-01T22:12:15.322Z,2.57
2019-03-01T22:14:49.016Z,2.49
2019-03-01T22:17:20.479Z,2.49
2019-03-01T22:19:52.337Z,2.48
2019-03-01T22:22:23.525Z,2.50
2019-03-01T22:24:58.599Z,2.56
2019-03-01T22:27:28.849Z,2.49
2019-03-01T22:30:00.525Z,2.37
2019-03-01T22:32:33.540Z,2.35
2019-03-01T22:35:08.548Z,2.44
2019-03-01T22:37:40.174Z,2.56
2019-03-01T22:40:12.189Z,2.60
2019-03-01T22:42:45.694Z,2.44
2019-03-01T22:45:17.765Z,2.55
2019-03-01T22:47:49.161Z,2.68
2019-03-01T22:50:21.122Z,2.56
2019-03-01T22:52:52.335Z,2.56
2019-03-01T22:55:23.956Z,2.48
2019-03-01T22:57:57.789Z,2.33
2019-03-01T23:00:49.763Z,2.49
2019-03-01T23:03:22.681Z,2.49
2019-03-01T23:05:53.996Z,2.48
2019-03-01T23:08:26.683Z,2.52
2019-03-01T23:10:58.233Z,2.48
2019-03-01T23:13:29.494Z,2.46
2019-03-01T23:16:00.697Z,2.56
2019-03-01T23:18:32.104Z,2.54
2019-03-01T23:21:03.322Z,2.50
2019-03-01T23:23:34.664Z,2.46
2019-03-01T23:26:06.089Z,2.47
2019-03-01T23:28:40.802Z,2.60
2019-03-01T23:31:13.941Z,2.40
2019-03-01T23:33:45.486Z,2.19
2019-03-01T23:36:17.342Z,2.02
2019-03-01T23:38:50.139Z,2.11
2019-03-01T23:41:21.200Z,2.15
2019-03-01T23:43:52.721Z,2.35
2019-03-01T23:46:25.603Z,2.35
2019-03-01T23:49:06.047Z,2.29
2019-03-01T23:51:31.243Z,2.27
2019-03-01T23:54:05.728Z,2.25
2019-03-01T23:56:34.918Z,2.26
2019-03-01T23:59:06.186Z,2.23
